createdAt,value
2023-01-20T00:02:18.861Z,98493.69
2023-01-20T00:04:51.786Z,98491.78
2023-01-20T00:07:25.018Z,98494.91
2023-01-20T00:09:57.861Z,98494.09
2023-01-20T00:12:31.795Z,98510.78
2023-01-20T00:15:07.120Z,98506.97
2023-01-20T00:17:40.033Z,98497.53
2023-01-20T00:20:13.681Z,98509.88
2023-01-20T00:22:46.532Z,98515.19
2023-01-20T00:25:19.268Z,98517.84
2023-01-20T00:27:53.248Z,98521.13
2023-01-20T00:30:27.606Z,98523.78
2023-01-20T00:33:00.486Z,98525.16
2023-01-20T00:35:33.267Z,98532.16
2023-01-20T00:38:06.045Z,98527.97
2023-01-20T00:40:38.892Z,98523.63
2023-01-20T00:43:13.207Z,98536.50
2023-01-20T00:45:47.399Z,98538.94
2023-01-20T00:48:20.224Z,98534.16
2023-01-20T00:50:53.078Z,98534.19
2023-01-20T00:53:25.958Z,98538.09
2023-01-20T00:55:59.038Z,98541.00
2023-01-20T00:58:31.829Z,98542.84
2023-01-20T01:01:06.571Z,98551.06
2023-01-20T01:03:39.585Z,98559.84
2023-01-20T01:06:14.963Z,98560.25
2023-01-20T01:08:47.810Z,98557.56
2023-01-20T01:11:20.660Z,98562.25
2023-01-20T01:13:53.465Z,98573.06
2023-01-20T01:16:27.654Z,98570.06
2023-01-20T01:19:00.517Z,98573.63
2023-01-20T01:21:33.294Z,98583.88
2023-01-20T01:24:06.407Z,98580.66
2023-01-20T01:26:39.220Z,98588.78
2023-01-20T01:29:12.116Z,98584.13
2023-01-20T01:31:46.368Z,98584.03
2023-01-20T01:34:19.189Z,98598.88
2023-01-20T01:36:52.088Z,98585.56
2023-01-20T01:39:25.250Z,98591.75
2023-01-20T01:41:58.085Z,98600.59
2023-01-20T01:44:32.872Z,98595.03
2023-01-20T01:47:07.360Z,98588.78
2023-01-20T01:49:40.602Z,98594.00
2023-01-20T01:52:13.404Z,98596.19
2023-01-20T01:54:46.388Z,98603.97
2023-01-20T01:57:19.198Z,98600.56
2023-01-20T01:59:52.843Z,98602.84
2023-01-20T02:02:27.467Z,98602.69
2023-01-20T02:05:00.287Z,98599.59
2023-01-20T02:07:34.525Z,98591.00
2023-01-20T02:10:08.009Z,98598.41
2023-01-20T02:12:42.364Z,98599.19
2023-01-20T02:15:15.747Z,98605.44
2023-01-20T02:17:59.780Z,98602.44
2023-01-20T02:20:47.691Z,98607.50
2023-01-20T02:23:38.761Z,98601.44
2023-01-20T02:26:41.799Z,98605.19
2023-01-20T02:29:53.205Z,98609.09
2023-01-20T02:32:39.320Z,98618.84
2023-01-20T02:35:17.325Z,98617.91
2023-01-20T02:37:58.160Z,98616.16
2023-01-20T02:40:35.856Z,98616.09
2023-01-20T02:43:18.084Z,98623.16
2023-01-20T02:45:58.172Z,98623.50
2023-01-20T02:48:39.765Z,98611.63
2023-01-20T02:51:17.204Z,98623.78
2023-01-20T02:53:55.027Z,98630.00
2023-01-20T02:56:30.579Z,98632.78
2023-01-20T02:59:08.771Z,98636.09
2023-01-20T03:01:47.653Z,98629.16
2023-01-20T03:04:26.553Z,98627.00
2023-01-20T03:07:01.008Z,98637.00
2023-01-20T03:09:38.618Z,98634.50
2023-01-20T03:12:22.312Z,98626.59
2023-01-20T03:14:55.421Z,98643.59
2023-01-20T03:17:28.360Z,98636.22
2023-01-20T03:20:03.166Z,98641.56
2023-01-20T03:22:36.001Z,98648.44
2023-01-20T03:25:10.986Z,98651.00
2023-01-20T03:27:43.938Z,98650.28
2023-01-20T03:30:18.571Z,98652.06
2023-01-20T03:32:54.428Z,98647.50
2023-01-20T03:35:29.260Z,98650.56
2023-01-20T03:38:02.171Z,98660.50
2023-01-20T03:40:41.788Z,98660.22
2023-01-20T03:43:21.659Z,98663.91
2023-01-20T03:46:01.013Z,98667.66
2023-01-20T03:48:42.993Z,98666.44
2023-01-20T03:51:26.895Z,98674.34
2023-01-20T03:54:03.373Z,98670.41
2023-01-20T03:56:42.216Z,98670.69
2023-01-20T03:59:17.864Z,98671.09
2023-01-20T04:01:51.284Z,98681.00
2023-01-20T04:04:24.551Z,98679.56
2023-01-20T04:06:59.188Z,98679.25
2023-01-20T04:09:37.052Z,98680.69
2023-01-20T04:12:10.088Z,98677.84
2023-01-20T04:14:42.896Z,98680.59
2023-01-20T04:17:16.357Z,98681.97
2023-01-20T04:19:49.707Z,98681.81
2023-01-20T04:22:32.640Z,98677.94
2023-01-20T04:25:14.361Z,98687.16
2023-01-20T04:27:47.304Z,98688.31
2023-01-20T04:30:20.277Z,98683.88
2023-01-20T04:32:53.029Z,98689.78
2023-01-20T04:35:25.825Z,98685.38
2023-01-20T04:37:59.892Z,98686.19
2023-01-20T04:40:32.671Z,98694.94
2023-01-20T04:43:05.672Z,98691.81
2023-01-20T04:45:38.649Z,98693.28
2023-01-20T04:48:11.771Z,98698.75
2023-01-20T04:50:45.008Z,98699.19
2023-01-20T04:53:19.338Z,98696.75
2023-01-20T04:55:52.138Z,98699.38
2023-01-20T04:58:24.934Z,98710.63
2023-01-20T05:00:57.638Z,98707.06
2023-01-20T05:03:30.501Z,98709.50
2023-01-20T05:06:03.385Z,98705.69
2023-01-20T05:08:37.495Z,98714.59
2023-01-20T05:11:10.324Z,98727.97
2023-01-20T05:13:44.102Z,98724.44
2023-01-20T05:16:21.884Z,98720.72
2023-01-20T05:18:55.182Z,98732.88
2023-01-20T05:21:28.285Z,98734.09
2023-01-20T05:24:02.395Z,98735.84
2023-01-20T05:26:35.477Z,98734.47
2023-01-20T05:29:09.218Z,98739.56
2023-01-20T05:31:43.608Z,98742.69
2023-01-20T05:34:17.126Z,98750.50
2023-01-20T05:36:52.551Z,98755.25
2023-01-20T05:39:26.805Z,98752.34
2023-01-20T05:41:59.500Z,98755.00
2023-01-20T05:44:32.255Z,98768.03
2023-01-20T05:47:05.213Z,98764.53
2023-01-20T05:49:37.989Z,98769.94
2023-01-20T05:52:11.440Z,98770.75
2023-01-20T05:54:45.836Z,98776.97
2023-01-20T05:57:18.650Z,98770.69
2023-01-20T05:59:52.131Z,98774.38
2023-01-20T06:02:24.903Z,98774.25
2023-01-20T06:04:57.707Z,98775.03
2023-01-20T06:07:31.582Z,98778.50
2023-01-20T06:10:08.579Z,98786.50
2023-01-20T06:12:41.303Z,98781.41
2023-01-20T06:15:14.419Z,98792.81
2023-01-20T06:17:47.526Z,98789.81
2023-01-20T06:20:20.601Z,98796.47
2023-01-20T06:22:56.090Z,98790.66
2023-01-20T06:25:30.191Z,98794.06
2023-01-20T06:28:03.057Z,98796.69
2023-01-20T06:30:35.947Z,98805.38
2023-01-20T06:33:10.766Z,98801.72
2023-01-20T06:35:43.534Z,98804.81
2023-01-20T06:38:16.238Z,98812.06
2023-01-20T06:40:50.361Z,98813.31
2023-01-20T06:43:23.234Z,98819.81
2023-01-20T06:46:00.158Z,98828.25
2023-01-20T06:48:33.314Z,98825.28
2023-01-20T06:51:08.346Z,98830.41
2023-01-20T06:53:41.397Z,98828.47
2023-01-20T06:56:16.598Z,98829.78
2023-01-20T06:58:49.363Z,98836.75
2023-01-20T07:01:24.367Z,98847.06
2023-01-20T07:03:57.617Z,98854.56
2023-01-20T07:06:32.076Z,98855.56
2023-01-20T07:09:06.450Z,98861.41
2023-01-20T07:11:41.116Z,98871.34
2023-01-20T07:14:13.833Z,98874.91
2023-01-20T07:16:47.731Z,98877.25
2023-01-20T07:19:20.498Z,98880.00
2023-01-20T07:21:53.253Z,98884.06
2023-01-20T07:24:26.012Z,98887.72
2023-01-20T07:27:00.100Z,98889.47
2023-01-20T07:29:32.843Z,98900.69
2023-01-20T07:32:06.129Z,98889.94
2023-01-20T07:34:38.831Z,98894.91
2023-01-20T07:37:11.553Z,98902.78
2023-01-20T07:39:44.214Z,98904.59
2023-01-20T07:42:33.390Z,98911.56
2023-01-20T07:45:07.213Z,98914.66
2023-01-20T07:47:39.957Z,98920.00
2023-01-20T07:50:12.696Z,98925.09
2023-01-20T07:52:45.402Z,98924.66
2023-01-20T07:55:18.073Z,98929.53
2023-01-20T07:57:52.117Z,98934.28
2023-01-20T08:00:24.897Z,98943.63
2023-01-20T08:02:57.638Z,98940.50
2023-01-20T08:05:30.360Z,98941.63
2023-01-20T08:08:03.049Z,98949.34
2023-01-20T08:10:35.820Z,98951.63
2023-01-20T08:13:09.907Z,98958.44
2023-01-20T08:15:42.679Z,98966.59
2023-01-20T08:18:15.407Z,98963.66
2023-01-20T08:20:48.076Z,98952.28
2023-01-20T08:23:20.827Z,98956.09
2023-01-20T08:25:59.892Z,98966.53
2023-01-20T08:28:37.056Z,98970.06
2023-01-20T08:31:12.841Z,98972.59
2023-01-20T08:33:45.789Z,98966.63
2023-01-20T08:36:20.801Z,98978.34
2023-01-20T08:38:55.810Z,98977.41
2023-01-20T08:41:31.353Z,98979.13
2023-01-20T08:44:07.176Z,98978.38
2023-01-20T08:46:41.804Z,98982.25
2023-01-20T08:49:17.916Z,98978.44
2023-01-20T08:51:51.250Z,98991.81
2023-01-20T08:54:24.407Z,98997.59
2023-01-20T08:56:57.154Z,99001.41
2023-01-20T08:59:31.222Z,99002.84
2023-01-20T09:02:04.044Z,98991.53
2023-01-20T09:04:37.244Z,99000.44
2023-01-20T09:07:12.215Z,99007.31
2023-01-20T09:09:45.350Z,99017.13
2023-01-20T09:12:18.125Z,99015.88
2023-01-20T09:14:52.834Z,99011.75
2023-01-20T09:17:25.610Z,99018.47
2023-01-20T09:19:58.375Z,99023.91
2023-01-20T09:22:31.048Z,99021.84
2023-01-20T09:25:03.880Z,99026.75
2023-01-20T09:27:37.107Z,99024.44
2023-01-20T09:30:12.111Z,99030.28
2023-01-20T09:32:44.806Z,99027.94
2023-01-20T09:35:18.167Z,99037.06
2023-01-20T09:38:09.020Z,99040.22
2023-01-20T09:41:07.040Z,99049.56
2023-01-20T09:43:55.292Z,99051.19
2023-01-20T09:47:07.392Z,99049.81
2023-01-20T09:50:07.951Z,99054.47
2023-01-20T09:52:58.206Z,99046.03
2023-01-20T09:55:39.721Z,99044.34
2023-01-20T09:58:20.178Z,99050.91
2023-01-20T10:00:54.675Z,99053.97
2023-01-20T10:03:37.246Z,99065.97
2023-01-20T10:06:14.375Z,99068.44
2023-01-20T10:09:04.605Z,99059.22
2023-01-20T10:11:42.140Z,99063.28
2023-01-20T10:14:20.785Z,99070.69
2023-01-20T10:17:00.009Z,99068.44
2023-01-20T10:19:42.342Z,99068.34
2023-01-20T10:22:22.082Z,99073.22
2023-01-20T10:25:01.086Z,99078.69
2023-01-20T10:27:36.862Z,99080.47
2023-01-20T10:30:15.541Z,99068.53
2023-01-20T10:32:53.506Z,99084.22
2023-01-20T10:35:29.463Z,99077.75
2023-01-20T10:38:03.760Z,99085.94
2023-01-20T10:40:42.197Z,99080.84
2023-01-20T10:43:17.532Z,99084.44
2023-01-20T10:46:12.311Z,99083.59
2023-01-20T10:49:06.498Z,99076.59
2023-01-20T10:51:48.195Z,99090.25
2023-01-20T10:54:30.019Z,99085.06
2023-01-20T10:57:05.024Z,99085.25
2023-01-20T10:59:43.297Z,99089.00
2023-01-20T11:02:20.330Z,99094.78
2023-01-20T11:04:58.771Z,99084.75
2023-01-20T11:07:35.027Z,99094.28
2023-01-20T11:10:15.998Z,99094.38
2023-01-20T11:12:53.109Z,99096.88
2023-01-20T11:15:30.029Z,99100.97
2023-01-20T11:18:26.496Z,99105.53
2023-01-20T11:21:02.287Z,99104.63
2023-01-20T11:23:41.659Z,99108.50
2023-01-20T11:26:21.860Z,99108.63
2023-01-20T11:28:57.166Z,99109.34
2023-01-20T11:31:39.289Z,99107.66
2023-01-20T11:34:24.270Z,99116.50
2023-01-20T11:37:18.209Z,99117.75
2023-01-20T11:40:01.129Z,99112.78
2023-01-20T11:42:45.921Z,99111.53
2023-01-20T11:45:28.557Z,99116.41
2023-01-20T11:48:05.472Z,99121.00
2023-01-20T11:50:40.573Z,99115.44
2023-01-20T11:53:24.726Z,99120.97
2023-01-20T11:56:01.121Z,99114.69
2023-01-20T11:58:51.418Z,99116.63
2023-01-20T12:01:26.732Z,99118.97
2023-01-20T12:04:24.092Z,99119.91
2023-01-20T12:07:03.497Z,99123.34
2023-01-20T12:09:38.821Z,99128.44
2023-01-20T12:12:21.791Z,99123.06
2023-01-20T12:15:01.699Z,99132.28
2023-01-20T12:17:43.155Z,99132.88
2023-01-20T12:20:23.651Z,99126.03
2023-01-20T12:23:08.513Z,99128.81
2023-01-20T12:25:49.932Z,99133.38
2023-01-20T12:28:30.052Z,99137.94
2023-01-20T12:31:04.488Z,99137.66
2023-01-20T12:33:41.227Z,99131.31
2023-01-20T12:36:29.886Z,99136.44
2023-01-20T12:39:38.207Z,99132.72
2023-01-20T12:42:36.028Z,99137.28
2023-01-20T12:45:23.926Z,99142.47
2023-01-20T12:48:12.138Z,99137.13
2023-01-20T12:50:58.474Z,99133.41
2023-01-20T12:53:46.429Z,99145.28
2023-01-20T12:56:30.282Z,99140.69
2023-01-20T12:59:16.325Z,99137.56
2023-01-20T13:02:05.784Z,99142.44
2023-01-20T13:05:15.407Z,99139.03
2023-01-20T13:08:02.623Z,99145.59
2023-01-20T13:10:57.670Z,99147.47
2023-01-20T13:13:55.874Z,99148.31
2023-01-20T13:16:36.592Z,99148.00
2023-01-20T13:19:15.985Z,99149.78
2023-01-20T13:22:06.562Z,99143.28
2023-01-20T13:24:45.116Z,99152.72
2023-01-20T13:27:22.928Z,99148.31
2023-01-20T13:29:57.769Z,99150.56
2023-01-20T13:32:33.572Z,99149.53
2023-01-20T13:35:45.926Z,99164.22
2023-01-20T13:38:23.885Z,99155.34
2023-01-20T13:40:58.686Z,99157.69
2023-01-20T13:43:50.331Z,99165.16
2023-01-20T13:46:48.893Z,99167.50
2023-01-20T13:49:25.010Z,99172.56
2023-01-20T13:51:59.055Z,99164.03
2023-01-20T13:54:46.012Z,99170.47
2023-01-20T13:57:45.827Z,99171.56
2023-01-20T14:00:20.764Z,99181.44
2023-01-20T14:02:54.010Z,99183.25
2023-01-20T14:05:34.275Z,99181.50
2023-01-20T14:08:14.760Z,99190.03
2023-01-20T14:10:47.728Z,99189.81
2023-01-20T14:13:22.832Z,99188.31
2023-01-20T14:15:57.205Z,99189.63
2023-01-20T14:18:30.104Z,99196.97
2023-01-20T14:21:06.035Z,99192.88
2023-01-20T14:23:40.502Z,99196.75
2023-01-20T14:26:14.930Z,99199.50
2023-01-20T14:28:50.182Z,99198.81
2023-01-20T14:31:32.511Z,99208.16
2023-01-20T14:34:24.490Z,99205.03
2023-01-20T14:36:58.706Z,99208.88
2023-01-20T14:39:33.437Z,99206.81
2023-01-20T14:42:19.203Z,99205.72
2023-01-20T14:44:53.645Z,99211.88
2023-01-20T14:47:27.958Z,99210.88
2023-01-20T14:50:02.573Z,99211.75
2023-01-20T14:52:35.399Z,99213.47
2023-01-20T14:55:31.648Z,99220.22
2023-01-20T14:58:09.220Z,99224.94
2023-01-20T15:00:44.634Z,99224.25
2023-01-20T15:03:21.691Z,99230.59
2023-01-20T15:05:58.217Z,99226.41
2023-01-20T15:08:56.897Z,99235.13
2023-01-20T15:11:38.645Z,99231.25
2023-01-20T15:14:13.510Z,99241.38
2023-01-20T15:16:51.881Z,99244.06
2023-01-20T15:19:37.045Z,99249.84
2023-01-20T15:22:19.434Z,99250.09
2023-01-20T15:24:52.866Z,99246.63
2023-01-20T15:27:37.992Z,99256.59
2023-01-20T15:30:18.807Z,99260.81
2023-01-20T15:32:52.342Z,99258.97
2023-01-20T15:35:27.041Z,99261.84
2023-01-20T15:37:59.852Z,99260.28
2023-01-20T15:40:32.885Z,99258.94
2023-01-20T15:43:15.396Z,99272.63
2023-01-20T15:45:48.090Z,99280.69
2023-01-20T15:48:22.321Z,99275.81
2023-01-20T15:50:55.093Z,99275.66
2023-01-20T15:53:27.842Z,99273.94
2023-01-20T15:56:01.039Z,99290.47
2023-01-20T15:58:35.830Z,99288.75
2023-01-20T16:01:13.753Z,99290.41
2023-01-20T16:03:46.778Z,99292.19
2023-01-20T16:06:21.138Z,99299.59
2023-01-20T16:08:53.970Z,99309.50
2023-01-20T16:11:26.864Z,99303.81
2023-01-20T16:14:00.903Z,99310.63
2023-01-20T16:16:33.692Z,99313.81
2023-01-20T16:19:06.771Z,99310.31
2023-01-20T16:21:39.747Z,99308.34
2023-01-20T16:24:12.859Z,99318.00
2023-01-20T16:26:48.030Z,99317.81
2023-01-20T16:29:22.062Z,99316.22
2023-01-20T16:31:54.885Z,99316.56
2023-01-20T16:34:27.611Z,99318.41
2023-01-20T16:37:00.309Z,99323.09
2023-01-20T16:39:33.702Z,99331.34
2023-01-20T16:42:06.675Z,99329.78
2023-01-20T16:44:40.751Z,99335.28
2023-01-20T16:47:13.482Z,99336.56
2023-01-20T16:49:46.134Z,99344.28
2023-01-20T16:52:22.038Z,99348.59
2023-01-20T16:54:54.813Z,99349.41
2023-01-20T16:57:27.818Z,99348.09
2023-01-20T17:00:01.917Z,99356.84
2023-01-20T17:02:35.076Z,99357.00
2023-01-20T17:05:08.628Z,99355.84
2023-01-20T17:07:41.407Z,99362.75
2023-01-20T17:10:14.717Z,99362.66
2023-01-20T17:12:48.970Z,99366.69
2023-01-20T17:15:24.496Z,99374.25
2023-01-20T17:18:00.232Z,99360.19
2023-01-20T17:20:32.980Z,99371.38
2023-01-20T17:23:05.699Z,99365.91
2023-01-20T17:25:38.438Z,99361.81
2023-01-20T17:28:11.195Z,99376.34
2023-01-20T17:30:45.388Z,99380.03
2023-01-20T17:33:18.238Z,99375.56
2023-01-20T17:36:01.815Z,99383.50
2023-01-20T17:38:39.772Z,99375.13
2023-01-20T17:41:13.295Z,99383.94
2023-01-20T17:43:49.941Z,99383.16
2023-01-20T17:46:27.679Z,99392.66
2023-01-20T17:49:01.707Z,99394.94
2023-01-20T17:51:35.023Z,99396.78
2023-01-20T17:54:07.739Z,99389.91
2023-01-20T17:56:40.521Z,99392.56
2023-01-20T17:59:13.208Z,99404.72
2023-01-20T18:01:48.237Z,99404.63
2023-01-20T18:04:20.986Z,99400.16
2023-01-20T18:06:53.731Z,99398.66
2023-01-20T18:09:26.476Z,99412.81
2023-01-20T18:12:00.238Z,99406.41
2023-01-20T18:14:33.135Z,99416.25
2023-01-20T18:17:07.308Z,99422.25
2023-01-20T18:19:40.088Z,99425.84
2023-01-20T18:22:14.278Z,99427.19
2023-01-20T18:24:47.168Z,99427.03
2023-01-20T18:27:19.876Z,99429.03
2023-01-20T18:29:54.330Z,99433.56
2023-01-20T18:32:28.454Z,99431.84
2023-01-20T18:35:01.189Z,99430.97
2023-01-20T18:37:33.982Z,99425.81
2023-01-20T18:40:08.217Z,99422.06
2023-01-20T18:42:42.765Z,99438.47
2023-01-20T18:45:15.500Z,99432.69
2023-01-20T18:47:50.837Z,99429.13
2023-01-20T18:50:27.025Z,99434.47
2023-01-20T18:53:05.011Z,99438.22
2023-01-20T18:55:37.851Z,99445.75
2023-01-20T18:58:10.532Z,99442.19
2023-01-20T19:00:43.572Z,99442.38
2023-01-20T19:03:17.676Z,99431.16
2023-01-20T19:05:50.472Z,99441.94
2023-01-20T19:08:23.248Z,99441.09
2023-01-20T19:11:00.620Z,99444.50
2023-01-20T19:13:33.715Z,99442.34
2023-01-20T19:16:10.115Z,99442.00
2023-01-20T19:18:46.045Z,99435.66
2023-01-20T19:21:19.140Z,99451.34
2023-01-20T19:23:52.847Z,99442.16
2023-01-20T19:26:27.451Z,99460.47
2023-01-20T19:29:02.627Z,99460.22
2023-01-20T19:31:37.927Z,99454.22
2023-01-20T19:34:12.773Z,99460.47
2023-01-20T19:36:45.460Z,99459.53
2023-01-20T19:39:18.364Z,99466.00
2023-01-20T19:41:51.604Z,99461.72
2023-01-20T19:44:25.335Z,99471.44
2023-01-20T19:47:04.075Z,99475.59
2023-01-20T19:49:38.351Z,99475.25
2023-01-20T19:52:11.159Z,99470.19
2023-01-20T19:54:43.949Z,99473.19
2023-01-20T19:57:16.701Z,99482.53
2023-01-20T19:59:51.105Z,99475.66
2023-01-20T20:02:23.916Z,99481.19
2023-01-20T20:04:58.076Z,99493.38
2023-01-20T20:07:30.830Z,99482.47
2023-01-20T20:10:03.645Z,99491.59
2023-01-20T20:12:36.406Z,99501.28
2023-01-20T20:15:09.924Z,99499.13
2023-01-20T20:17:42.988Z,99501.53
2023-01-20T20:20:18.270Z,99505.75
2023-01-20T20:22:51.286Z,99510.75
2023-01-20T20:25:24.045Z,99510.59
2023-01-20T20:27:57.705Z,99511.97
2023-01-20T20:30:30.593Z,99515.69
2023-01-20T20:33:03.351Z,99520.59
2023-01-20T20:35:37.908Z,99524.66
2023-01-20T20:38:10.707Z,99526.19
2023-01-20T20:40:43.489Z,99524.84
2023-01-20T20:43:16.280Z,99530.53
2023-01-20T20:45:49.047Z,99529.72
2023-01-20T20:48:21.869Z,99534.19
2023-01-20T20:50:55.986Z,99526.56
2023-01-20T20:53:28.753Z,99534.81
2023-01-20T20:56:04.026Z,99536.22
2023-01-20T20:58:43.323Z,99539.97
2023-01-20T21:01:21.678Z,99537.88
2023-01-20T21:03:57.371Z,99537.94
2023-01-20T21:06:32.421Z,99542.69
2023-01-20T21:09:05.395Z,99543.69
2023-01-20T21:11:38.711Z,99547.91
2023-01-20T21:14:12.102Z,99546.44
2023-01-20T21:16:44.871Z,99547.03
2023-01-20T21:19:17.664Z,99545.81
2023-01-20T21:21:51.981Z,99553.94
2023-01-20T21:24:28.971Z,99558.88
2023-01-20T21:27:02.146Z,99560.94
2023-01-20T21:29:34.838Z,99553.53
2023-01-20T21:32:07.622Z,99558.97
2023-01-20T21:34:40.322Z,99566.53
2023-01-20T21:37:14.419Z,99562.41
2023-01-20T21:39:47.104Z,99565.72
2023-01-20T21:42:19.803Z,99567.19
2023-01-20T21:44:51.628Z,99563.16
2023-01-20T21:47:24.511Z,99570.53
2023-01-20T21:50:29.555Z,99577.06
2023-01-20T21:53:03.926Z,99582.13
2023-01-20T21:55:37.956Z,99578.91
2023-01-20T21:58:10.748Z,99574.13
2023-01-20T22:00:43.701Z,99579.34
2023-01-20T22:03:16.453Z,99587.03
2023-01-20T22:05:49.312Z,99590.56
2023-01-20T22:08:23.403Z,99590.06
2023-01-20T22:10:56.726Z,99591.91
2023-01-20T22:13:29.917Z,99587.81
2023-01-20T22:16:03.137Z,99588.50
2023-01-20T22:18:35.983Z,99587.00
2023-01-20T22:21:09.229Z,99590.59
2023-01-20T22:23:43.976Z,99597.50
2023-01-20T22:26:16.841Z,99596.00
2023-01-20T22:28:49.712Z,99600.53
2023-01-20T22:31:23.998Z,99603.72
2023-01-20T22:33:59.700Z,99606.25
2023-01-20T22:36:32.559Z,99608.72
2023-01-20T22:39:07.507Z,99612.47
2023-01-20T22:41:40.816Z,99619.88
2023-01-20T22:44:13.674Z,99616.53
2023-01-20T22:46:46.423Z,99617.03
2023-01-20T22:49:19.436Z,99618.34
2023-01-20T22:51:54.882Z,99623.44
2023-01-20T22:54:28.993Z,99618.50
2023-01-20T22:57:01.677Z,99620.03
2023-01-20T22:59:35.690Z,99621.66
2023-01-20T23:02:08.661Z,99617.19
2023-01-20T23:04:41.965Z,99618.53
2023-01-20T23:07:15.100Z,99629.31
2023-01-20T23:09:49.995Z,99621.00
2023-01-20T23:12:22.709Z,99629.28
2023-01-20T23:15:01.853Z,99630.06
2023-01-20T23:17:34.830Z,99639.06
2023-01-20T23:20:08.819Z,99624.78
2023-01-20T23:22:41.504Z,99633.03
2023-01-20T23:25:15.921Z,99643.59
2023-01-20T23:27:48.597Z,99634.91
2023-01-20T23:30:21.550Z,99636.19
2023-01-20T23:32:54.663Z,99640.22
2023-01-20T23:35:27.580Z,99649.72
2023-01-20T23:38:00.320Z,99638.38
2023-01-20T23:40:35.699Z,99638.69
2023-01-20T23:43:08.955Z,99647.50
2023-01-20T23:45:41.803Z,99657.19
2023-01-20T23:48:15.127Z,99649.91
2023-01-20T23:50:47.864Z,99657.59
2023-01-20T23:53:20.716Z,99661.16
2023-01-20T23:55:59.901Z,99666.19
2023-01-20T23:58:33.460Z,99676.69
